KFKL/FKL METAR and TAF weather

Enter ICAO airport designator
Station Type Date Time Source
KFKL METAR 2021/05/15 23:56 UTC NOAA

KFKL 152356Z AUTO 31003KT 10SM CLR 17/00 RMK AO2 SLPNO 6//// T01720000 10206 20172 $


Station Type Date Time Source
KFKL Decoded METAR 2021/05/15 23:56 UTC NOAA

Franklin, Venango Regional Airport, PA, United States (KFKL) 41-23N 079-52W
May 15, 2021 - 07:56 PM EDT / 2021.05.15 2356 UTC
Wind: from the NW (310 degrees) at 3 MPH (3 KT):0
Visibility: 10 mile(s):0
Sky conditions: clear
Temperature: 63.0 F (17.2 C)
Dew Point: 32.0 F (0.0 C)
Relative Humidity: 31%
ob: KFKL 152356Z AUTO 31003KT 10SM CLR 17/00 RMK AO2 SLPNO 6//// T01720000 10206 20172
cycle: 0

Station Type Date Time Source
KFKL TAF 2021/05/15 18:21 UTC NOAA

TAF KFKL 151720Z 1518/1618 24005KT P6SM BKN200
FM152300 00000KT P6SM SCT150
FM161600 27003KT P6SM BKN080

Example: see airport list